createdAt,value
2018-06-05T00:01:51.996Z,99.90
2018-06-05T00:04:20.694Z,99.90
2018-06-05T00:06:49.340Z,99.90
2018-06-05T00:09:17.974Z,99.90
2018-06-05T00:11:46.653Z,99.90
2018-06-05T00:14:15.364Z,99.90
2018-06-05T00:16:44.031Z,99.90
2018-06-05T00:19:12.678Z,99.90
2018-06-05T00:21:41.311Z,99.90
2018-06-05T00:24:09.990Z,99.90
2018-06-05T00:26:38.642Z,99.90
2018-06-05T00:29:07.286Z,99.90
2018-06-05T00:31:35.969Z,99.90
2018-06-05T00:34:04.631Z,99.90
2018-06-05T00:36:33.310Z,99.90
2018-06-05T00:39:01.985Z,99.90
2018-06-05T00:41:30.638Z,99.90
2018-06-05T00:43:59.291Z,99.90
2018-06-05T00:46:27.965Z,99.90
2018-06-05T00:48:56.591Z,99.90
2018-06-05T00:51:36.387Z,99.90
2018-06-05T00:54:05.033Z,99.90
2018-06-05T00:56:33.691Z,99.90
2018-06-05T00:59:02.345Z,99.90
2018-06-05T01:01:30.989Z,99.90
2018-06-05T01:03:59.612Z,99.90
2018-06-05T01:06:28.293Z,99.90
2018-06-05T01:08:56.929Z,99.90
2018-06-05T01:11:25.606Z,99.90
2018-06-05T01:13:54.248Z,99.90
2018-06-05T01:16:22.920Z,99.90
2018-06-05T01:18:51.592Z,99.90
2018-06-05T01:21:20.244Z,99.90
2018-06-05T01:23:48.910Z,99.90
2018-06-05T01:26:17.609Z,99.90
2018-06-05T01:28:46.239Z,99.90
2018-06-05T01:31:14.917Z,99.90
2018-06-05T01:33:43.567Z,99.90
2018-06-05T01:36:12.216Z,99.90
2018-06-05T01:38:40.897Z,99.90
2018-06-05T01:41:09.541Z,99.90
2018-06-05T01:43:38.172Z,99.90
2018-06-05T01:46:06.844Z,99.90
2018-06-05T01:51:03.813Z,99.90
2018-06-05T01:53:32.488Z,99.90
2018-06-05T01:56:01.108Z,99.90
2018-06-05T01:58:29.772Z,99.90
2018-06-05T02:00:58.414Z,99.90
2018-06-05T02:03:27.078Z,99.90
2018-06-05T02:05:55.761Z,99.90
2018-06-05T02:08:24.432Z,99.90
2018-06-05T02:10:53.137Z,99.90
2018-06-05T02:13:21.793Z,99.90
2018-06-05T02:15:50.437Z,99.90
2018-06-05T02:18:19.112Z,99.90
2018-06-05T02:20:47.756Z,99.90
2018-06-05T02:23:16.385Z,99.90
2018-06-05T02:25:45.057Z,99.90
2018-06-05T02:28:13.700Z,99.90
2018-06-05T02:30:42.344Z,99.90
2018-06-05T02:33:10.997Z,99.90
2018-06-05T02:35:39.677Z,99.90
2018-06-05T02:38:08.354Z,99.90
2018-06-05T02:40:37.055Z,99.90
2018-06-05T02:43:05.721Z,99.90
2018-06-05T02:45:34.385Z,99.90
2018-06-05T02:50:31.328Z,99.90
2018-06-05T02:52:59.976Z,99.90
2018-06-05T02:55:28.626Z,99.90
2018-06-05T02:57:57.348Z,99.90
2018-06-05T03:00:25.994Z,99.90
2018-06-05T03:02:54.654Z,99.90
2018-06-05T03:05:23.296Z,99.90
2018-06-05T03:07:51.975Z,99.90
2018-06-05T03:12:48.893Z,99.90
2018-06-05T03:15:17.558Z,99.90
2018-06-05T03:17:46.243Z,99.90
2018-06-05T03:20:14.900Z,99.90
2018-06-05T03:22:43.571Z,99.90
2018-06-05T03:25:12.266Z,99.90
2018-06-05T03:27:40.929Z,99.90
2018-06-05T03:30:09.622Z,99.90
2018-06-05T03:32:38.329Z,99.90
2018-06-05T03:35:06.999Z,99.90
2018-06-05T03:37:35.657Z,99.90
2018-06-05T03:40:04.413Z,99.90
2018-06-05T03:42:33.056Z,99.90
2018-06-05T03:45:01.735Z,99.90
2018-06-05T03:47:30.430Z,99.90
2018-06-05T03:49:59.080Z,99.90
2018-06-05T03:52:27.743Z,99.90
2018-06-05T03:54:56.426Z,99.90
2018-06-05T03:57:25.046Z,99.90
2018-06-05T03:59:53.707Z,99.90
2018-06-05T04:02:22.362Z,99.90
2018-06-05T04:04:51.024Z,99.90
2018-06-05T04:07:19.690Z,99.90
2018-06-05T04:09:48.316Z,99.90
2018-06-05T04:12:16.973Z,99.90
2018-06-05T04:14:45.650Z,99.90
2018-06-05T04:17:14.267Z,99.90
2018-06-05T04:19:42.957Z,99.90
2018-06-05T04:22:11.569Z,99.90
2018-06-05T04:24:40.219Z,99.90
2018-06-05T04:27:08.922Z,99.90
2018-06-05T04:29:37.568Z,99.90
2018-06-05T04:32:06.264Z,99.90
2018-06-05T04:34:34.894Z,99.90
2018-06-05T04:37:03.585Z,99.90
2018-06-05T04:39:32.277Z,99.90
2018-06-05T04:42:00.938Z,99.90
2018-06-05T04:44:29.610Z,99.90
2018-06-05T04:46:58.424Z,99.90
2018-06-05T04:49:27.085Z,99.90
2018-06-05T04:51:55.773Z,99.90
2018-06-05T04:54:24.452Z,99.90
2018-06-05T04:56:53.139Z,99.90
2018-06-05T04:59:21.807Z,99.90
2018-06-05T05:01:50.436Z,99.90
2018-06-05T05:04:19.094Z,99.90
2018-06-05T05:06:47.790Z,99.90
2018-06-05T05:09:17.707Z,99.90
2018-06-05T05:11:46.377Z,99.90
2018-06-05T05:14:15.054Z,99.90
2018-06-05T05:16:43.816Z,99.90
2018-06-05T05:19:12.506Z,99.90
2018-06-05T05:21:41.201Z,99.90
2018-06-05T05:24:09.839Z,99.90
2018-06-05T05:26:38.486Z,99.90
2018-06-05T05:29:07.150Z,99.90
2018-06-05T05:31:35.794Z,99.90
2018-06-05T05:34:04.477Z,99.90
2018-06-05T05:36:33.165Z,99.90
2018-06-05T05:39:01.897Z,99.90
2018-06-05T05:41:30.649Z,99.90
2018-06-05T05:43:59.336Z,99.90
2018-06-05T05:46:27.967Z,99.90
2018-06-05T05:48:56.640Z,99.90
2018-06-05T05:51:25.326Z,99.90
2018-06-05T05:53:53.969Z,99.90
2018-06-05T05:56:22.628Z,99.90
2018-06-05T05:58:51.274Z,99.90
2018-06-05T06:01:19.966Z,99.90
2018-06-05T06:03:48.687Z,99.90
2018-06-05T06:06:17.328Z,99.90
2018-06-05T06:08:45.982Z,99.90
2018-06-05T06:11:14.669Z,99.90
2018-06-05T06:13:43.317Z,99.90
2018-06-05T06:16:12.069Z,99.90
2018-06-05T06:18:40.725Z,99.90
2018-06-05T06:21:09.394Z,99.90
2018-06-05T06:23:38.065Z,99.90
2018-06-05T06:26:06.743Z,99.90
2018-06-05T06:28:35.402Z,99.90
2018-06-05T06:31:04.128Z,99.90
2018-06-05T06:33:32.772Z,99.90
2018-06-05T06:36:01.449Z,98.90
2018-06-05T06:40:58.425Z,98.10
2018-06-05T06:43:27.112Z,97.40
2018-06-05T06:45:55.782Z,98.40
2018-06-05T06:50:52.748Z,95.70
2018-06-05T06:55:49.720Z,98.50
2018-06-05T06:58:18.401Z,99.10
2018-06-05T07:03:15.391Z,99.70
2018-06-05T07:05:44.075Z,99.90
2018-06-05T07:08:12.735Z,99.90
2018-06-05T07:10:41.380Z,99.90
2018-06-05T07:13:10.060Z,99.90
2018-06-05T07:15:38.729Z,99.60
2018-06-05T07:18:07.532Z,99.90
2018-06-05T07:20:36.202Z,99.90
2018-06-05T07:23:04.901Z,99.90
2018-06-05T07:25:33.579Z,99.90
2018-06-05T07:28:02.273Z,99.90
2018-06-05T07:30:30.919Z,99.90
2018-06-05T07:32:59.612Z,99.90
2018-06-05T07:35:28.292Z,99.90
2018-06-05T07:37:56.969Z,99.90
2018-06-05T07:40:25.596Z,99.90
2018-06-05T07:42:54.298Z,99.90
2018-06-05T07:45:22.981Z,99.90
2018-06-05T07:47:51.648Z,99.90
2018-06-05T07:50:21.178Z,99.90
2018-06-05T07:52:49.891Z,99.90
2018-06-05T07:55:18.598Z,99.90
2018-06-05T07:57:47.261Z,99.90
2018-06-05T08:00:15.914Z,99.90
2018-06-05T08:02:44.552Z,99.90
2018-06-05T08:05:16.760Z,99.90
2018-06-05T08:07:45.425Z,99.90
2018-06-05T08:10:14.088Z,99.90
2018-06-05T08:15:35.829Z,99.90
2018-06-05T08:18:06.530Z,99.90
2018-06-05T08:20:35.222Z,99.90
2018-06-05T08:23:03.865Z,99.90
2018-06-05T08:25:32.535Z,99.90
2018-06-05T08:28:01.225Z,98.60
2018-06-05T08:30:29.892Z,99.90
2018-06-05T08:32:58.581Z,98.70
2018-06-05T08:35:27.342Z,99.70
2018-06-05T08:37:55.987Z,99.90
2018-06-05T08:40:24.703Z,99.50
2018-06-05T08:42:53.397Z,97.80
2018-06-05T08:45:22.049Z,98.90
2018-06-05T08:47:50.742Z,99.00
2018-06-05T08:50:19.378Z,99.90
2018-06-05T08:52:48.034Z,97.90
2018-06-05T08:57:44.975Z,96.80
2018-06-05T09:00:13.657Z,97.10
2018-06-05T09:02:42.336Z,97.90
2018-06-05T09:05:11.036Z,98.60
2018-06-05T09:07:39.814Z,99.20
2018-06-05T09:10:08.505Z,99.50
2018-06-05T09:12:37.156Z,98.80
2018-06-05T09:15:05.841Z,97.90
2018-06-05T09:17:34.493Z,96.10
2018-06-05T09:22:31.496Z,95.60
2018-06-05T09:25:00.154Z,95.60
2018-06-05T09:27:28.810Z,95.60
2018-06-05T09:29:57.498Z,95.30
2018-06-05T09:32:26.145Z,94.90
2018-06-05T09:34:54.793Z,96.30
2018-06-05T09:37:23.497Z,95.10
2018-06-05T09:39:52.141Z,95.30
2018-06-05T09:42:20.837Z,95.00
2018-06-05T09:47:17.796Z,94.80
2018-06-05T09:52:14.872Z,94.30
2018-06-05T09:54:43.576Z,93.30
2018-06-05T09:57:12.230Z,93.10
2018-06-05T10:02:09.197Z,93.00
2018-06-05T10:07:06.157Z,92.50
2018-06-05T10:12:03.112Z,93.60
2018-06-05T10:14:31.745Z,93.00
2018-06-05T10:17:00.403Z,92.00
2018-06-05T10:19:29.073Z,92.70
2018-06-05T10:26:54.315Z,91.60
2018-06-05T10:34:19.541Z,92.20
2018-06-05T10:39:16.506Z,91.90
2018-06-05T10:44:13.492Z,92.30
2018-06-05T10:46:42.183Z,92.90
2018-06-05T10:49:10.855Z,92.00
2018-06-05T10:51:39.549Z,92.00
2018-06-05T10:54:08.204Z,91.60
2018-06-05T10:56:42.604Z,91.10
2018-06-05T10:59:11.249Z,90.80
2018-06-05T11:01:39.908Z,91.40
2018-06-05T11:06:36.873Z,90.30
2018-06-05T11:09:08.006Z,90.10
2018-06-05T11:14:05.611Z,90.00
2018-06-05T11:16:34.308Z,88.80
2018-06-05T11:19:03.024Z,91.20
2018-06-05T11:21:31.701Z,90.00
2018-06-05T11:24:00.441Z,90.40
2018-06-05T11:26:29.117Z,88.60
2018-06-05T11:31:27.276Z,87.70
2018-06-05T11:33:56.008Z,90.10
2018-06-05T11:36:25.333Z,90.40
2018-06-05T11:38:53.980Z,91.20
2018-06-05T11:43:54.058Z,89.70
2018-06-05T11:46:22.733Z,89.90
2018-06-05T11:48:51.446Z,87.00
2018-06-05T11:51:20.128Z,86.20
2018-06-05T11:53:48.859Z,84.10
2018-06-05T11:56:17.590Z,84.10
2018-06-05T11:58:46.235Z,83.70
2018-06-05T12:01:14.933Z,83.30
2018-06-05T12:03:43.568Z,84.90
2018-06-05T12:06:12.204Z,87.30
2018-06-05T12:08:40.899Z,83.10
2018-06-05T12:11:09.537Z,80.10
2018-06-05T12:13:38.165Z,79.70
2018-06-05T12:16:06.867Z,79.60
2018-06-05T12:18:35.524Z,78.10
2018-06-05T12:21:04.192Z,77.80
2018-06-05T12:23:32.841Z,77.00
2018-06-05T12:26:01.514Z,79.40
2018-06-05T12:28:30.157Z,78.90
2018-06-05T12:30:58.884Z,78.00
2018-06-05T12:33:27.562Z,77.50
2018-06-05T12:36:01.650Z,79.90
2018-06-05T12:38:30.305Z,77.10
2018-06-05T12:40:59.064Z,78.80
2018-06-05T12:43:27.752Z,78.60
2018-06-05T12:45:56.455Z,78.20
2018-06-05T12:48:25.187Z,78.70
2018-06-05T12:50:53.831Z,78.20
2018-06-05T12:53:22.491Z,79.40
2018-06-05T12:55:51.212Z,81.20
2018-06-05T13:00:48.120Z,77.60
2018-06-05T13:03:16.844Z,73.80
2018-06-05T13:05:45.501Z,71.20
2018-06-05T13:08:14.132Z,68.70
2018-06-05T13:10:42.829Z,70.00
2018-06-05T13:15:39.755Z,67.50
2018-06-05T13:18:08.408Z,68.50
2018-06-05T13:20:37.072Z,69.20
2018-06-05T13:23:05.793Z,72.80
2018-06-05T13:25:34.408Z,73.70
2018-06-05T13:28:03.048Z,71.10
2018-06-05T13:30:31.689Z,72.40
2018-06-05T13:35:34.072Z,72.50
2018-06-05T13:40:31.065Z,74.10
2018-06-05T13:42:59.728Z,74.60
2018-06-05T13:50:24.934Z,74.80
2018-06-05T13:53:06.157Z,76.00
2018-06-05T13:55:34.804Z,73.70
2018-06-05T13:58:03.563Z,72.70
2018-06-05T14:00:32.278Z,76.30
2018-06-05T14:03:00.908Z,71.80
2018-06-05T14:05:29.579Z,73.50
2018-06-05T14:07:58.254Z,72.20
2018-06-05T14:10:26.955Z,73.70
2018-06-05T14:12:55.628Z,73.30
2018-06-05T14:17:52.596Z,75.50
2018-06-05T14:22:49.522Z,75.50
2018-06-05T14:25:18.156Z,76.70
2018-06-05T14:27:46.909Z,73.30
2018-06-05T14:30:15.546Z,71.50
2018-06-05T14:32:44.176Z,71.00
2018-06-05T14:35:12.944Z,70.50
2018-06-05T14:37:41.744Z,69.50
2018-06-05T14:40:32.655Z,68.30
2018-06-05T14:43:01.308Z,68.80
2018-06-05T14:45:29.982Z,69.10
2018-06-05T14:47:58.639Z,66.00
2018-06-05T14:50:28.415Z,65.70
2018-06-05T14:52:57.093Z,65.50
2018-06-05T14:55:25.760Z,64.50
2018-06-05T14:57:54.412Z,64.50
2018-06-05T15:00:23.104Z,64.70
2018-06-05T15:02:51.758Z,65.30
2018-06-05T15:05:20.425Z,66.30
2018-06-05T15:07:49.072Z,67.90
2018-06-05T15:15:57.148Z,71.20
2018-06-05T15:18:32.430Z,70.00
2018-06-05T15:21:09.208Z,70.80
2018-06-05T15:23:45.968Z,71.70
2018-06-05T15:26:14.636Z,72.30
2018-06-05T15:28:43.268Z,73.90
2018-06-05T15:31:11.924Z,72.70
2018-06-05T15:36:21.251Z,72.90
2018-06-05T15:38:49.929Z,73.40
2018-06-05T15:41:18.596Z,74.50
2018-06-05T15:43:48.256Z,74.20
2018-06-05T15:46:16.906Z,73.60
2018-06-05T15:48:49.496Z,73.90
2018-06-05T15:51:18.218Z,73.60
2018-06-05T15:56:15.144Z,73.60
2018-06-05T15:58:43.797Z,75.60
2018-06-05T16:01:12.481Z,76.20
2018-06-05T16:03:41.167Z,76.10
2018-06-05T16:06:09.880Z,75.20
2018-06-05T16:08:39.640Z,75.70
2018-06-05T16:11:08.315Z,76.20
2018-06-05T16:16:05.269Z,76.40
2018-06-05T16:18:33.930Z,75.50
2018-06-05T16:21:02.557Z,75.40
2018-06-05T16:23:31.310Z,76.10
2018-06-05T16:26:00.001Z,76.40
2018-06-05T16:28:28.614Z,77.40
2018-06-05T16:30:57.484Z,77.60
2018-06-05T16:33:26.156Z,77.00
2018-06-05T16:35:54.805Z,77.60
2018-06-05T16:38:23.552Z,78.60
2018-06-05T16:40:52.244Z,78.80
2018-06-05T16:43:20.937Z,77.20
2018-06-05T16:45:49.700Z,77.40
2018-06-05T16:48:33.080Z,77.30
2018-06-05T16:51:01.788Z,79.00
2018-06-05T16:53:30.436Z,77.40
2018-06-05T16:55:59.119Z,77.60
2018-06-05T16:58:27.895Z,77.60
2018-06-05T17:00:56.539Z,77.60
2018-06-05T17:03:25.217Z,77.20
2018-06-05T17:05:53.900Z,77.50
2018-06-05T17:11:34.182Z,77.10
2018-06-05T17:14:02.871Z,77.10
2018-06-05T17:16:31.554Z,78.10
2018-06-05T17:19:00.259Z,77.50
2018-06-05T17:24:28.268Z,78.20
2018-06-05T17:29:25.215Z,77.80
2018-06-05T17:31:53.881Z,77.70
2018-06-05T17:34:22.638Z,77.60
2018-06-05T17:36:51.305Z,77.90
2018-06-05T17:39:19.968Z,79.00
2018-06-05T17:44:26.790Z,78.30
2018-06-05T17:46:55.434Z,80.00
2018-06-05T17:49:24.196Z,78.80
2018-06-05T17:51:52.854Z,80.50
2018-06-05T17:54:21.572Z,80.10
2018-06-05T17:56:50.248Z,79.80
2018-06-05T17:59:25.971Z,79.80
2018-06-05T18:01:54.600Z,79.60
2018-06-05T18:04:23.289Z,79.80
2018-06-05T18:06:51.934Z,80.40
2018-06-05T18:09:20.645Z,80.30
2018-06-05T18:11:49.408Z,80.50
2018-06-05T18:14:18.112Z,81.30
2018-06-05T18:16:47.808Z,81.00
2018-06-05T18:19:16.432Z,81.10
2018-06-05T18:21:45.087Z,81.80
2018-06-05T18:24:13.749Z,82.10
2018-06-05T18:26:42.429Z,81.40
2018-06-05T18:29:11.074Z,81.50
2018-06-05T18:31:39.702Z,82.00
2018-06-05T18:34:08.356Z,81.70
2018-06-05T18:36:37.040Z,81.70
2018-06-05T18:39:07.946Z,82.20
2018-06-05T18:44:32.622Z,83.10
2018-06-05T18:47:01.397Z,82.20
2018-06-05T18:49:30.013Z,82.50
2018-06-05T18:51:58.889Z,82.90
2018-06-05T18:54:27.568Z,82.50
2018-06-05T18:57:04.021Z,83.40
2018-06-05T18:59:32.741Z,83.60
2018-06-05T19:02:01.510Z,83.10
2018-06-05T19:04:30.166Z,83.40
2018-06-05T19:06:58.832Z,83.70
2018-06-05T19:09:27.482Z,83.50
2018-06-05T19:12:18.531Z,84.80
2018-06-05T19:14:47.208Z,85.70
2018-06-05T19:17:15.882Z,85.30
2018-06-05T19:19:57.504Z,84.90
2018-06-05T19:22:26.184Z,86.10
2018-06-05T19:24:54.824Z,84.60
2018-06-05T19:27:23.467Z,84.40
2018-06-05T19:29:52.195Z,84.20
2018-06-05T19:32:24.340Z,84.00
2018-06-05T19:34:53.083Z,85.50
2018-06-05T19:37:21.706Z,84.90
2018-06-05T19:39:50.618Z,86.20
2018-06-05T19:42:19.307Z,85.00
2018-06-05T19:44:47.950Z,85.50
2018-06-05T19:47:16.616Z,85.80
2018-06-05T19:49:46.304Z,85.70
2018-06-05T19:52:15.008Z,85.90
2018-06-05T19:54:43.770Z,87.20
2018-06-05T19:57:12.425Z,87.40
2018-06-05T19:59:41.089Z,87.60
2018-06-05T20:02:09.855Z,87.70
2018-06-05T20:04:38.527Z,87.90
2018-06-05T20:07:07.204Z,90.00
2018-06-05T20:09:36.726Z,88.80
2018-06-05T20:12:05.440Z,89.00
2018-06-05T20:14:34.159Z,89.90
2018-06-05T20:17:02.837Z,89.00
2018-06-05T20:19:31.493Z,89.20
2018-06-05T20:22:00.167Z,90.40
2018-06-05T20:24:28.876Z,90.50
2018-06-05T20:26:57.529Z,90.00
2018-06-05T20:29:26.179Z,90.10
2018-06-05T20:32:07.362Z,90.30
2018-06-05T20:34:36.021Z,90.70
2018-06-05T20:37:04.695Z,90.50
2018-06-05T20:39:33.353Z,91.00
2018-06-05T20:42:02.009Z,91.00
2018-06-05T20:44:30.680Z,91.00
2018-06-05T20:46:59.545Z,91.20
2018-06-05T20:51:56.692Z,91.70
2018-06-05T20:54:25.349Z,91.90
2018-06-05T20:56:53.981Z,92.00
2018-06-05T20:59:22.664Z,92.10
2018-06-05T21:04:19.696Z,92.90
2018-06-05T21:06:48.451Z,92.90
2018-06-05T21:09:17.106Z,93.10
2018-06-05T21:11:45.850Z,93.40
2018-06-05T21:14:14.453Z,93.40
2018-06-05T21:16:43.102Z,93.80
2018-06-05T21:19:11.802Z,94.10
2018-06-05T21:21:40.509Z,94.20
2018-06-05T21:24:09.159Z,94.50
2018-06-05T21:26:37.804Z,94.90
2018-06-05T21:29:06.445Z,94.80
2018-06-05T21:31:35.116Z,95.20
2018-06-05T21:34:03.773Z,95.80
2018-06-05T21:36:32.432Z,96.00
2018-06-05T21:39:01.089Z,96.10
2018-06-05T21:41:29.716Z,96.30
2018-06-05T21:43:58.417Z,96.50
2018-06-05T21:46:27.049Z,96.80
2018-06-05T21:48:55.691Z,97.20
2018-06-05T21:51:24.357Z,97.40
2018-06-05T21:53:53.022Z,97.60
2018-06-05T21:56:21.681Z,98.00
2018-06-05T21:58:50.371Z,98.20
2018-06-05T22:01:19.050Z,98.40
2018-06-05T22:03:47.732Z,98.80
2018-06-05T22:06:16.387Z,99.50
2018-06-05T22:08:45.040Z,99.90
2018-06-05T22:11:13.671Z,99.90
2018-06-05T22:13:42.340Z,99.90
2018-06-05T22:16:10.989Z,99.90
2018-06-05T22:18:39.705Z,99.90
2018-06-05T22:21:08.425Z,99.90
2018-06-05T22:23:37.115Z,99.90
2018-06-05T22:26:05.776Z,99.90
2018-06-05T22:28:34.445Z,99.90
2018-06-05T22:31:03.100Z,99.90
2018-06-05T22:33:31.780Z,99.90
2018-06-05T22:36:00.433Z,99.90
2018-06-05T22:38:29.103Z,99.90
2018-06-05T22:40:58.792Z,99.90
2018-06-05T22:43:27.469Z,99.90
2018-06-05T22:45:56.126Z,99.90
2018-06-05T22:48:24.776Z,99.90
2018-06-05T22:50:56.591Z,99.90
2018-06-05T22:53:25.261Z,99.90
2018-06-05T22:55:53.912Z,99.90
2018-06-05T22:58:22.576Z,99.90
2018-06-05T23:00:51.446Z,99.90
2018-06-05T23:06:13.511Z,99.90
2018-06-05T23:08:42.528Z,99.90
2018-06-05T23:11:11.166Z,99.90
2018-06-05T23:13:39.818Z,99.90
2018-06-05T23:16:08.474Z,99.90
2018-06-05T23:18:37.118Z,99.90
2018-06-05T23:21:05.745Z,99.90
2018-06-05T23:23:34.423Z,99.90
2018-06-05T23:26:03.073Z,99.90
2018-06-05T23:28:31.728Z,99.90
2018-06-05T23:31:00.377Z,99.90
2018-06-05T23:33:29.021Z,99.90
2018-06-05T23:35:57.710Z,99.90
2018-06-05T23:38:26.394Z,99.90
2018-06-05T23:40:55.066Z,99.90
2018-06-05T23:43:23.693Z,99.90
2018-06-05T23:45:52.385Z,99.90
2018-06-05T23:48:21.029Z,99.90
2018-06-05T23:50:49.668Z,99.90
2018-06-05T23:53:18.339Z,99.90
2018-06-05T23:55:46.990Z,99.90
2018-06-05T23:58:15.620Z,99.90
